Eidfjord-Bu, Norway

4:18 AM CET on December 20, 2014 (GMT +0100)
Kinsarvik | Change Station
CLOSE
Current Station
Personal Weather Station
Location: Hordaland, HORDALAND
Elevation: 351 ft
Nearby Weather Stations

Elev 351 ft 60.37 °N, 6.73 °E | Updated 3 minutes ago

Mostly Cloudy
Mostly Cloudy
33.5 °F
Feels Like 34 °F
N
3.0
Wind Variable Wind from SSE
Gusts 6.0 mph

Today
High -- | Low -- °F
--% Chance of Precip.
Yesterday
High -- | Low -- °F
Precip. -- in
9:38 AM 3:21 PM
Waning Crescent, 5% visible
Pressure 29.15 in
Visibility 6.2 miles
Clouds Few 2000 ft
Scattered Clouds 6000 ft
Mostly Cloudy 10000 ft
Windchill 34 °F
Dew Point 34 °F
Humidity 100%
Rainfall 0.12 in
Snow Depth Not available.
UV 0 out of 12
Pollen Not available.
Air Quality Not available.
Flu Activity Not available.
METAR ENBR 200250Z 30008KT 260V320 9999 VCTS FEW020CB SCT060 BKN100 04/01 Q0987 RMK

More Conditions Fewer Conditions

Pressure 29.15 in
Visibility 6.2 miles
Clouds Few 2000 ft
Scattered Clouds 6000 ft
Mostly Cloudy 10000 ft
Windchill 34 °F
Dew Point 34 °F
Humidity 100%
Rainfall 0.12 in
Snow Depth Not available.
UV 0 out of 12
Pollen Not available.
Air Quality Not available.
Flu Activity Not available.
METAR ENBR 200250Z 30008KT 260V320 9999 VCTS FEW020CB SCT060 BKN100 04/01 Q0987 RMK

More Conditions Fewer Conditions

10-Day Weather Forecast

Almanac

Astronomy

Dec. 20, 2014 Rise Set
Actual Time
Civil Twilight
Nautical Twilight
Astronomical Twilight
Moon
Length of Visible Light
Length of Day
Tomorrow will be .
, % of the Moon is Illuminated

Today's Extremes

Country Highs Country Lows

Community

WunderPhotos

Upload Photos

1,779,123 photos uploaded!

WunderBlogs® & News

Nearby

Air Quality

  Air Quality AQ Index Pollutant
Not available.

Snow Depth

Station Depth Elevation

Earthquake Activity

City Distance Mag. Time & Date
Minimum magnitude displayed is 2.5.

Coastal Water Temperatures

Place Temperature

Nearby Weather Stations